createdAt,value
2023-05-09T00:01:58.472Z,31.55
2023-05-09T00:04:26.491Z,30.50
2023-05-09T00:06:54.727Z,28.80
2023-05-09T00:09:24.021Z,25.52
2023-05-09T00:11:51.910Z,27.70
2023-05-09T00:14:19.750Z,26.95
2023-05-09T00:16:47.672Z,29.25
2023-05-09T00:19:16.035Z,25.77
2023-05-09T00:21:43.864Z,24.35
2023-05-09T00:24:11.749Z,24.42
2023-05-09T00:26:40.973Z,25.70
2023-05-09T00:29:08.980Z,25.30
2023-05-09T00:31:36.795Z,24.92
2023-05-09T00:34:04.746Z,23.42
2023-05-09T00:36:33.098Z,23.88
2023-05-09T00:39:00.826Z,25.83
2023-05-09T00:41:28.612Z,24.35
2023-05-09T00:43:57.833Z,25.52
2023-05-09T00:46:26.398Z,22.65
2023-05-09T00:48:54.284Z,26.15
2023-05-09T00:51:22.948Z,25.05
2023-05-09T00:53:50.928Z,25.63
2023-05-09T00:56:18.888Z,26.58
2023-05-09T00:58:47.064Z,25.13
2023-05-09T01:01:17.281Z,27.52
2023-05-09T01:03:47.483Z,26.75
2023-05-09T01:06:24.168Z,27.45
2023-05-09T01:09:00.325Z,28.15
2023-05-09T01:11:33.564Z,26.50
2023-05-09T01:14:13.305Z,27.40
2023-05-09T01:16:48.361Z,27.13
2023-05-09T01:19:47.062Z,27.92
2023-05-09T01:22:17.406Z,27.83
2023-05-09T01:25:07.212Z,27.88
2023-05-09T01:27:45.540Z,27.33
2023-05-09T01:30:17.081Z,31.23
2023-05-09T01:32:50.523Z,29.58
2023-05-09T01:35:19.740Z,31.50
2023-05-09T01:37:52.012Z,32.75
2023-05-09T01:40:22.412Z,29.90
2023-05-09T01:42:53.887Z,31.63
2023-05-09T01:45:24.853Z,31.20
2023-05-09T01:47:54.659Z,32.25
2023-05-09T01:50:24.202Z,29.85
2023-05-09T01:52:56.507Z,31.95
2023-05-09T01:55:27.766Z,32.78
2023-05-09T01:57:57.655Z,32.45
2023-05-09T02:00:28.154Z,31.75
2023-05-09T02:02:58.788Z,32.53
2023-05-09T02:05:30.631Z,30.25
2023-05-09T02:07:59.507Z,32.33
2023-05-09T02:10:29.316Z,32.83
2023-05-09T02:12:57.757Z,33.53
2023-05-09T02:15:27.618Z,34.35
2023-05-09T02:17:55.583Z,31.17
2023-05-09T02:20:23.627Z,30.40
2023-05-09T02:22:52.042Z,29.70
2023-05-09T02:25:21.801Z,31.15
2023-05-09T02:27:49.852Z,30.63
2023-05-09T02:30:23.454Z,30.65
2023-05-09T02:32:58.562Z,32.45
2023-05-09T02:35:28.182Z,31.90
2023-05-09T02:37:59.834Z,32.08
2023-05-09T02:40:31.101Z,30.90
2023-05-09T02:42:58.969Z,31.83
2023-05-09T02:45:27.094Z,30.90
2023-05-09T02:47:56.582Z,30.77
2023-05-09T02:50:25.020Z,32.40
2023-05-09T02:52:52.874Z,32.67
2023-05-09T02:55:20.838Z,31.08
2023-05-09T02:57:52.012Z,31.23
2023-05-09T03:00:29.117Z,32.28
2023-05-09T03:02:58.480Z,30.33
2023-05-09T03:05:26.372Z,29.75
2023-05-09T03:07:54.260Z,32.58
2023-05-09T03:10:22.220Z,30.67
2023-05-09T03:12:49.973Z,33.15
2023-05-09T03:15:17.831Z,33.13
2023-05-09T03:17:47.851Z,30.83
2023-05-09T03:20:17.276Z,31.40
2023-05-09T03:22:45.411Z,32.72
2023-05-09T03:25:14.075Z,33.05
2023-05-09T03:27:42.752Z,33.55
2023-05-09T03:30:15.960Z,33.05
2023-05-09T03:32:46.057Z,32.85
2023-05-09T03:35:14.739Z,34.00
2023-05-09T03:37:44.382Z,33.25
2023-05-09T03:40:13.274Z,33.05
2023-05-09T03:42:48.195Z,30.67
2023-05-09T03:45:17.006Z,35.33
2023-05-09T03:47:47.375Z,34.70
2023-05-09T03:50:16.150Z,36.38
2023-05-09T03:52:46.933Z,37.72
2023-05-09T03:55:18.496Z,38.00
2023-05-09T03:57:46.342Z,34.58
2023-05-09T04:00:14.918Z,36.10
2023-05-09T04:02:47.568Z,35.55
2023-05-09T04:05:24.326Z,34.53
2023-05-09T04:07:54.542Z,34.42
2023-05-09T04:10:22.826Z,39.13
2023-05-09T04:12:50.954Z,35.05
2023-05-09T04:15:19.263Z,40.08
2023-05-09T04:17:47.633Z,38.88
2023-05-09T04:20:18.102Z,40.08
2023-05-09T04:22:47.033Z,39.15
2023-05-09T04:25:20.134Z,41.28
2023-05-09T04:27:48.995Z,43.08
2023-05-09T04:30:17.675Z,38.40
2023-05-09T04:32:47.208Z,39.85
2023-05-09T04:35:17.497Z,41.90
2023-05-09T04:40:19.310Z,38.10
2023-05-09T04:42:54.624Z,41.55
2023-05-09T04:45:26.370Z,40.88
2023-05-09T04:47:54.300Z,43.88
2023-05-09T04:50:22.456Z,40.47
2023-05-09T04:52:50.204Z,44.03
2023-05-09T04:55:19.952Z,41.42
2023-05-09T04:57:49.720Z,42.75
2023-05-09T05:00:18.606Z,43.95
2023-05-09T05:02:48.391Z,42.38
2023-05-09T05:05:16.714Z,43.42
2023-05-09T05:07:45.030Z,45.90
2023-05-09T05:10:19.926Z,44.88
2023-05-09T05:12:51.874Z,44.88
2023-05-09T05:15:20.632Z,44.70
2023-05-09T05:17:49.557Z,46.22
2023-05-09T05:20:21.360Z,46.83
2023-05-09T05:22:50.399Z,49.17
2023-05-09T05:25:21.072Z,49.80
2023-05-09T05:27:50.787Z,48.22
2023-05-09T05:30:18.766Z,52.10
2023-05-09T05:32:47.096Z,48.10
2023-05-09T05:35:18.066Z,49.40
2023-05-09T05:37:47.641Z,49.17
2023-05-09T05:40:17.143Z,52.10
2023-05-09T05:42:49.044Z,47.38
2023-05-09T05:45:17.943Z,51.25
2023-05-09T05:47:50.108Z,50.15
2023-05-09T05:50:18.751Z,49.72
2023-05-09T05:52:47.133Z,49.83
2023-05-09T05:55:17.570Z,49.95
2023-05-09T05:57:47.034Z,48.70
2023-05-09T06:00:18.285Z,47.08
2023-05-09T06:02:55.972Z,43.40
2023-05-09T06:05:29.299Z,45.40
2023-05-09T06:07:57.182Z,45.63
2023-05-09T06:10:25.308Z,40.90
2023-05-09T06:12:53.503Z,40.92
2023-05-09T06:15:22.875Z,40.08
2023-05-09T06:17:52.065Z,35.63
2023-05-09T06:20:21.022Z,34.83
2023-05-09T06:22:49.138Z,33.05
2023-05-09T06:25:17.387Z,31.73
2023-05-09T06:27:46.652Z,29.67
2023-05-09T06:30:25.789Z,28.25
2023-05-09T06:32:57.982Z,28.83
2023-05-09T06:35:25.910Z,29.33
2023-05-09T06:37:53.677Z,31.95
2023-05-09T06:40:21.958Z,32.50
2023-05-09T06:42:49.860Z,32.38
2023-05-09T06:45:18.195Z,31.60
2023-05-09T06:47:46.405Z,30.58
2023-05-09T06:50:16.081Z,30.35
2023-05-09T06:52:43.858Z,31.35
2023-05-09T06:55:12.335Z,31.27
2023-05-09T06:57:40.765Z,28.77
2023-05-09T07:00:10.088Z,30.88
2023-05-09T07:02:41.750Z,29.65
2023-05-09T07:05:10.957Z,29.13
2023-05-09T07:07:40.802Z,29.58
2023-05-09T07:10:11.795Z,32.30
2023-05-09T07:12:40.050Z,33.40
2023-05-09T07:15:09.319Z,33.78
2023-05-09T07:17:37.142Z,35.20
2023-05-09T07:20:07.147Z,33.50
2023-05-09T07:22:37.433Z,35.00
2023-05-09T07:25:09.144Z,37.83
2023-05-09T07:27:37.232Z,37.35
2023-05-09T07:30:05.753Z,37.10
2023-05-09T07:32:34.351Z,35.55
2023-05-09T07:35:03.251Z,38.17
2023-05-09T07:37:31.273Z,36.42
2023-05-09T07:39:59.065Z,35.67
2023-05-09T07:42:28.276Z,37.83
2023-05-09T07:44:56.731Z,37.22
2023-05-09T07:47:24.809Z,37.85
2023-05-09T07:49:52.718Z,37.70
2023-05-09T07:52:20.503Z,38.08
2023-05-09T07:54:48.716Z,39.28
2023-05-09T07:57:17.291Z,39.88
2023-05-09T07:59:46.788Z,40.33
2023-05-09T08:02:14.718Z,39.33
2023-05-09T08:04:42.497Z,42.17
2023-05-09T08:07:11.954Z,40.47
2023-05-09T08:09:39.771Z,41.95
2023-05-09T08:12:08.226Z,43.03
2023-05-09T08:14:36.088Z,42.83
2023-05-09T08:17:05.249Z,41.55
2023-05-09T08:19:33.053Z,41.28
2023-05-09T08:22:01.863Z,43.40
2023-05-09T08:24:29.877Z,42.20
2023-05-09T08:26:57.932Z,43.17
2023-05-09T08:29:25.862Z,44.45
2023-05-09T08:31:53.751Z,44.03
2023-05-09T08:34:22.977Z,42.00
2023-05-09T08:36:50.722Z,43.25
2023-05-09T08:39:19.279Z,43.10
2023-05-09T08:41:47.316Z,42.35
2023-05-09T08:44:15.851Z,44.17
2023-05-09T08:46:48.312Z,43.67
2023-05-09T08:49:17.115Z,43.93
2023-05-09T08:51:48.154Z,44.38
2023-05-09T08:54:17.002Z,43.10
2023-05-09T08:56:44.757Z,42.42
2023-05-09T08:59:13.568Z,42.08
2023-05-09T09:01:42.620Z,41.22
2023-05-09T09:04:12.049Z,41.88
2023-05-09T09:06:41.120Z,43.42
2023-05-09T09:09:10.438Z,40.33
2023-05-09T09:11:39.291Z,40.00
2023-05-09T09:14:13.249Z,40.85
2023-05-09T09:16:42.882Z,41.78
2023-05-09T09:19:14.222Z,39.65
2023-05-09T09:21:43.843Z,38.10
2023-05-09T09:24:14.664Z,40.00
2023-05-09T09:26:48.292Z,39.75
2023-05-09T09:29:18.522Z,40.20
2023-05-09T09:31:47.702Z,41.28
2023-05-09T09:34:23.918Z,40.92
2023-05-09T09:36:52.188Z,39.63
2023-05-09T09:39:22.151Z,36.92
2023-05-09T09:41:50.028Z,40.35
2023-05-09T09:44:19.065Z,37.63
2023-05-09T09:46:48.790Z,39.10
2023-05-09T09:49:18.595Z,38.10
2023-05-09T09:51:47.021Z,37.28
2023-05-09T09:54:16.319Z,36.58
2023-05-09T09:56:46.809Z,43.10
2023-05-09T09:59:16.696Z,36.75
2023-05-09T10:02:07.013Z,36.10
2023-05-09T10:04:38.038Z,34.90
2023-05-09T10:07:07.484Z,35.67
2023-05-09T10:09:38.019Z,34.25
2023-05-09T10:12:08.983Z,33.35
2023-05-09T10:14:39.238Z,33.92
2023-05-09T10:17:07.113Z,32.85
2023-05-09T10:19:36.964Z,34.65
2023-05-09T10:22:10.060Z,33.88
2023-05-09T10:24:43.228Z,32.88
2023-05-09T10:27:13.744Z,30.25
2023-05-09T10:29:46.653Z,32.85
2023-05-09T10:32:20.564Z,31.90
2023-05-09T10:34:52.593Z,31.75
2023-05-09T10:37:22.389Z,30.55
2023-05-09T10:39:53.552Z,30.80
2023-05-09T10:42:25.241Z,30.38
2023-05-09T10:44:54.407Z,28.15
2023-05-09T10:47:23.283Z,28.10
2023-05-09T10:49:51.258Z,24.23
2023-05-09T10:52:19.023Z,24.48
2023-05-09T10:54:59.452Z,23.23
2023-05-09T10:57:29.601Z,21.77
2023-05-09T10:59:58.830Z,22.20
2023-05-09T11:02:29.594Z,21.60
2023-05-09T11:05:17.638Z,21.55
2023-05-09T11:07:46.080Z,22.63
2023-05-09T11:10:16.952Z,21.92
2023-05-09T11:13:00.019Z,20.42
2023-05-09T11:15:28.553Z,22.10
2023-05-09T11:18:08.042Z,20.67
2023-05-09T11:20:36.911Z,19.33
2023-05-09T11:23:05.872Z,20.20
2023-05-09T11:25:33.816Z,21.13
2023-05-09T11:28:03.392Z,19.88
2023-05-09T11:30:40.645Z,20.05
2023-05-09T11:33:22.964Z,20.23
2023-05-09T11:36:17.422Z,19.27
2023-05-09T11:38:45.981Z,20.05
2023-05-09T11:41:14.766Z,19.83
2023-05-09T11:43:45.772Z,19.65
2023-05-09T11:46:13.782Z,19.95
2023-05-09T11:48:42.592Z,19.20
2023-05-09T11:51:18.063Z,18.88
2023-05-09T11:53:47.127Z,18.05
2023-05-09T11:56:15.705Z,14.88
2023-05-09T11:58:46.787Z,13.88
2023-05-09T12:01:14.875Z,12.77
2023-05-09T12:03:46.597Z,15.13
2023-05-09T12:06:18.576Z,15.75
2023-05-09T12:08:47.494Z,13.82
2023-05-09T12:11:16.055Z,15.00
2023-05-09T12:13:50.046Z,14.90
2023-05-09T12:16:18.800Z,14.70
2023-05-09T12:18:48.349Z,15.73
2023-05-09T12:21:16.818Z,16.77
2023-05-09T12:23:45.299Z,15.35
2023-05-09T12:26:13.465Z,15.43
2023-05-09T12:28:42.346Z,18.02
2023-05-09T12:31:12.400Z,16.02
2023-05-09T12:33:40.605Z,15.48
2023-05-09T12:36:11.026Z,16.50
2023-05-09T12:38:39.111Z,14.82
2023-05-09T12:41:15.369Z,15.23
2023-05-09T12:43:49.453Z,15.40
2023-05-09T12:46:21.387Z,15.15
2023-05-09T12:48:49.688Z,14.57
2023-05-09T12:51:20.131Z,15.07
2023-05-09T12:53:47.937Z,15.07
2023-05-09T12:56:18.443Z,13.98
2023-05-09T12:58:52.672Z,14.75
2023-05-09T13:01:23.764Z,14.27
2023-05-09T13:04:02.390Z,14.55
2023-05-09T13:06:30.767Z,14.40
2023-05-09T13:09:01.181Z,14.57
2023-05-09T13:11:29.417Z,14.73
2023-05-09T13:13:57.604Z,13.98
2023-05-09T13:16:26.961Z,14.60
2023-05-09T13:18:55.058Z,14.27
2023-05-09T13:21:23.165Z,13.70
2023-05-09T13:23:52.075Z,15.55
2023-05-09T13:26:19.978Z,14.68
2023-05-09T13:28:47.881Z,13.52
2023-05-09T13:31:15.708Z,14.35
2023-05-09T13:33:45.198Z,14.60
2023-05-09T13:36:13.013Z,15.77
2023-05-09T13:38:42.057Z,14.95
2023-05-09T13:41:10.411Z,14.88
2023-05-09T13:43:42.497Z,16.00
2023-05-09T13:46:10.295Z,16.05
2023-05-09T13:48:38.318Z,16.05
2023-05-09T13:51:07.905Z,18.00
2023-05-09T13:53:38.086Z,18.45
2023-05-09T13:56:09.311Z,18.90
2023-05-09T13:58:37.478Z,19.60
2023-05-09T14:01:05.524Z,20.08
2023-05-09T14:03:33.348Z,21.45
2023-05-09T14:06:01.309Z,21.08
2023-05-09T14:08:30.694Z,22.27
2023-05-09T14:10:58.610Z,22.17
2023-05-09T14:13:26.487Z,22.95
2023-05-09T14:15:54.446Z,23.70
2023-05-09T14:18:22.290Z,24.35
2023-05-09T14:20:50.368Z,22.65
2023-05-09T14:23:18.294Z,24.77
2023-05-09T14:25:47.554Z,26.23
2023-05-09T14:28:15.677Z,25.50
2023-05-09T14:30:43.790Z,26.20
2023-05-09T14:33:11.606Z,27.45
2023-05-09T14:35:41.403Z,26.25
2023-05-09T14:38:09.566Z,26.40
2023-05-09T14:40:37.592Z,25.73
2023-05-09T14:43:06.859Z,26.80
2023-05-09T14:45:34.908Z,26.30
2023-05-09T14:48:03.921Z,26.60
2023-05-09T14:50:32.060Z,26.58
2023-05-09T14:53:01.020Z,27.25
2023-05-09T14:55:31.106Z,26.30
2023-05-09T14:57:59.103Z,23.77
2023-05-09T15:00:29.087Z,25.35
2023-05-09T15:02:57.661Z,24.00
2023-05-09T15:05:25.856Z,25.77
2023-05-09T15:07:53.724Z,22.77
2023-05-09T15:10:21.837Z,23.65
2023-05-09T15:12:49.853Z,23.38
2023-05-09T15:15:19.212Z,20.50
2023-05-09T15:17:48.511Z,23.17
2023-05-09T15:20:17.617Z,21.90
2023-05-09T15:22:46.123Z,21.58
2023-05-09T15:25:14.548Z,21.20
2023-05-09T15:27:42.485Z,19.98
2023-05-09T15:30:12.595Z,19.25
2023-05-09T15:32:41.272Z,19.70
2023-05-09T15:35:11.322Z,20.77
2023-05-09T15:37:39.354Z,20.52
2023-05-09T15:40:08.696Z,17.60
2023-05-09T15:42:36.958Z,16.80
2023-05-09T15:45:06.733Z,16.33
2023-05-09T15:47:34.653Z,12.52
2023-05-09T15:50:02.731Z,11.75
2023-05-09T15:52:32.004Z,12.10
2023-05-09T15:54:59.946Z,12.23
2023-05-09T15:57:27.859Z,11.15
2023-05-09T15:59:56.028Z,9.30
2023-05-09T16:02:24.278Z,9.77
2023-05-09T16:04:52.215Z,8.82
2023-05-09T16:07:20.759Z,8.85
2023-05-09T16:09:50.296Z,8.93
2023-05-09T16:12:18.242Z,7.57
2023-05-09T16:14:45.990Z,7.38
2023-05-09T16:17:13.692Z,6.85
2023-05-09T16:19:42.483Z,6.13
2023-05-09T16:22:10.346Z,5.85
2023-05-09T16:24:38.388Z,6.22
2023-05-09T16:27:07.683Z,6.47
2023-05-09T16:29:35.576Z,6.18
2023-05-09T16:32:04.356Z,6.63
2023-05-09T16:34:32.377Z,6.30
2023-05-09T16:37:00.478Z,6.22
2023-05-09T16:39:28.561Z,6.07
2023-05-09T16:41:56.907Z,6.13
2023-05-09T16:44:26.967Z,6.18
2023-05-09T16:46:54.851Z,5.68
2023-05-09T16:49:22.956Z,6.00
2023-05-09T16:51:50.766Z,6.43
2023-05-09T16:54:18.606Z,5.50
2023-05-09T16:56:46.729Z,5.80
2023-05-09T16:59:14.647Z,6.20
2023-05-09T17:01:43.881Z,4.60
2023-05-09T17:04:11.884Z,4.63
2023-05-09T17:06:40.081Z,4.22
2023-05-09T17:09:08.281Z,4.50
2023-05-09T17:11:36.147Z,4.75
2023-05-09T17:14:04.761Z,4.30
2023-05-09T17:16:32.653Z,3.72
2023-05-09T17:19:02.003Z,3.70
2023-05-09T17:21:29.995Z,4.22
2023-05-09T17:23:58.083Z,4.55
2023-05-09T17:26:26.052Z,4.85
2023-05-09T17:28:54.003Z,4.72
2023-05-09T17:31:21.802Z,4.22
2023-05-09T17:33:50.060Z,4.65
2023-05-09T17:36:19.231Z,4.35
2023-05-09T17:38:47.221Z,4.43
2023-05-09T17:41:15.090Z,4.53
2023-05-09T17:43:42.835Z,4.60
2023-05-09T17:46:10.939Z,7.63
2023-05-09T17:48:38.852Z,7.47
2023-05-09T17:51:07.087Z,5.60
2023-05-09T17:53:36.248Z,4.03
2023-05-09T17:56:04.426Z,4.53
2023-05-09T17:58:32.232Z,6.63
2023-05-09T18:01:00.100Z,5.03
2023-05-09T18:03:28.910Z,4.60
2023-05-09T18:05:57.260Z,4.28
2023-05-09T18:08:25.086Z,3.75
2023-05-09T18:10:55.609Z,4.20
2023-05-09T18:13:23.945Z,5.32
2023-05-09T18:15:54.170Z,5.38
2023-05-09T18:18:22.454Z,5.13
2023-05-09T18:20:50.457Z,4.43
2023-05-09T18:23:18.473Z,4.25
2023-05-09T18:25:46.476Z,4.80
2023-05-09T18:28:15.890Z,4.40
2023-05-09T18:30:43.895Z,3.97
2023-05-09T18:33:11.732Z,4.28
2023-05-09T18:35:39.630Z,4.20
2023-05-09T18:38:07.594Z,4.50
2023-05-09T18:40:37.294Z,4.65
2023-05-09T18:43:05.295Z,4.20
2023-05-09T18:45:35.067Z,4.80
2023-05-09T18:48:03.392Z,4.53
2023-05-09T18:50:31.508Z,4.38
2023-05-09T18:52:59.675Z,4.13
2023-05-09T18:55:27.561Z,3.90
2023-05-09T18:57:55.602Z,4.25
2023-05-09T19:00:23.783Z,4.60
2023-05-09T19:02:53.121Z,4.57
2023-05-09T19:05:21.649Z,3.53
2023-05-09T19:07:49.847Z,3.85
2023-05-09T19:10:18.507Z,3.92
2023-05-09T19:12:46.957Z,3.50
2023-05-09T19:15:15.002Z,3.28
2023-05-09T19:17:42.817Z,3.28
2023-05-09T19:20:13.899Z,3.20
2023-05-09T19:22:46.200Z,3.70
2023-05-09T19:25:14.616Z,3.05
2023-05-09T19:27:42.739Z,3.17
2023-05-09T19:30:13.008Z,3.40
2023-05-09T19:32:41.339Z,2.95
2023-05-09T19:35:10.060Z,2.60
2023-05-09T19:37:39.503Z,2.55
2023-05-09T19:40:08.587Z,3.00
2023-05-09T19:42:38.393Z,3.55
2023-05-09T19:45:07.240Z,3.15
2023-05-09T19:47:35.065Z,3.00
2023-05-09T19:50:03.178Z,3.42
2023-05-09T19:52:31.742Z,3.20
2023-05-09T19:55:01.367Z,3.80
2023-05-09T19:57:29.359Z,3.70
2023-05-09T19:59:58.614Z,3.28
2023-05-09T20:02:26.629Z,3.15
2023-05-09T20:04:54.545Z,3.65
2023-05-09T20:07:22.391Z,3.97
2023-05-09T20:09:50.482Z,4.43
2023-05-09T20:12:20.175Z,5.63
2023-05-09T20:14:48.126Z,3.90
2023-05-09T20:17:16.080Z,3.75
2023-05-09T20:19:43.850Z,4.88
2023-05-09T20:22:11.778Z,4.07
2023-05-09T20:24:39.636Z,4.30
2023-05-09T20:27:07.689Z,4.28
2023-05-09T20:29:37.182Z,3.90
2023-05-09T20:32:05.316Z,4.80
2023-05-09T20:34:33.792Z,5.07
2023-05-09T20:37:02.393Z,5.78
2023-05-09T20:39:30.336Z,5.70
2023-05-09T20:42:02.333Z,6.10
2023-05-09T20:44:30.368Z,5.28
2023-05-09T20:46:59.691Z,7.82
2023-05-09T20:49:27.848Z,7.57
2023-05-09T20:51:56.565Z,9.38
2023-05-09T20:54:27.864Z,6.68
2023-05-09T20:56:55.935Z,6.60
2023-05-09T20:59:24.833Z,7.30
2023-05-09T21:01:55.623Z,7.88
2023-05-09T21:04:25.883Z,6.55
2023-05-09T21:06:53.960Z,7.13
2023-05-09T21:09:21.838Z,6.40
2023-05-09T21:11:51.938Z,7.53
2023-05-09T21:14:20.053Z,6.80
2023-05-09T21:16:48.508Z,6.80
2023-05-09T21:19:16.569Z,7.07
2023-05-09T21:21:45.987Z,7.28
2023-05-09T21:24:14.226Z,7.20
2023-05-09T21:26:42.412Z,7.43
2023-05-09T21:29:10.982Z,7.45
2023-05-09T21:31:38.978Z,7.40
2023-05-09T21:34:09.993Z,7.22
2023-05-09T21:36:38.512Z,7.70
2023-05-09T21:39:10.013Z,7.90
2023-05-09T21:41:38.708Z,8.02
2023-05-09T21:44:08.339Z,7.78
2023-05-09T21:46:36.496Z,7.97
2023-05-09T21:49:04.618Z,8.18
2023-05-09T21:51:33.443Z,8.27
2023-05-09T21:54:02.193Z,8.02
2023-05-09T21:56:31.901Z,8.43
2023-05-09T21:58:59.782Z,8.30
2023-05-09T22:01:27.618Z,8.23
2023-05-09T22:03:55.664Z,8.40
2023-05-09T22:06:23.745Z,8.75
2023-05-09T22:08:52.536Z,8.23
2023-05-09T22:11:20.408Z,10.05
2023-05-09T22:13:49.510Z,9.43
2023-05-09T22:16:17.543Z,10.20
2023-05-09T22:18:45.396Z,9.93
2023-05-09T22:21:13.212Z,9.13
2023-05-09T22:23:41.119Z,9.68
2023-05-09T22:26:08.896Z,9.48
2023-05-09T22:28:37.465Z,8.77
2023-05-09T22:31:07.939Z,9.35
2023-05-09T22:33:35.812Z,8.75
2023-05-09T22:36:03.742Z,9.43
2023-05-09T22:38:31.738Z,9.25
2023-05-09T22:40:59.521Z,10.23
2023-05-09T22:43:36.536Z,10.35
2023-05-09T22:46:07.942Z,10.35
2023-05-09T22:48:35.859Z,9.48
2023-05-09T22:51:03.892Z,10.25
2023-05-09T22:53:32.651Z,10.00
2023-05-09T22:56:00.719Z,10.45
2023-05-09T22:58:28.430Z,10.00
2023-05-09T23:00:56.652Z,10.45
2023-05-09T23:03:25.912Z,10.60
2023-05-09T23:05:53.904Z,10.57
2023-05-09T23:08:21.868Z,8.70
2023-05-09T23:10:50.062Z,8.93
2023-05-09T23:13:17.913Z,9.38
2023-05-09T23:15:45.879Z,8.48
2023-05-09T23:18:13.631Z,7.47
2023-05-09T23:20:42.801Z,8.32
2023-05-09T23:23:11.822Z,7.75
2023-05-09T23:25:40.104Z,7.80
2023-05-09T23:28:08.074Z,7.38
2023-05-09T23:30:35.776Z,8.93
2023-05-09T23:33:03.586Z,9.60
2023-05-09T23:35:32.004Z,9.80
2023-05-09T23:38:01.674Z,9.43
2023-05-09T23:40:29.642Z,9.57
2023-05-09T23:42:57.686Z,9.52
2023-05-09T23:45:25.759Z,9.27
2023-05-09T23:47:54.149Z,9.88
2023-05-09T23:50:22.323Z,9.50
2023-05-09T23:52:51.080Z,10.95
2023-05-09T23:55:20.404Z,10.27
2023-05-09T23:57:48.600Z,10.60
